Terminal Aerodrome Forecast
Issued by NWS

Home | Current Version | Previous Version | Text Only | Print | Product List | Glossary On
Versions: 1 2 3 4 5 6 7 8 9 10 11 12 13 14 15 16 17 18 19 20 21 22 23 24 25
000
FTUS41 KALY 301157 AAA
TAFPSF
TAF AMD
KPSF 301157Z 3012/3112 VRB03KT P6SM BKN080
      TEMPO 3012/3013 3SM BR
     FM301600 27006KT P6SM SCT060 BKN120
     FM302300 24003KT P6SM BKN150
     FM310300 00000KT 5SM BR FEW250
     FM310700 00000KT 2SM BR BKN003=

USA.gov is the U.S. government's official web portal to all federal, state and local government web resources and services.